Time;durP1;ratioP1;P1;durP2;ratioP2;P2;SDS_P1;SDS_P2;PMS_P1;PMS_P2;Temp;Humidity;BMP_temperature;BMP_pressure;BME280_temperature;BME280_humidity;BME280_pressure;Samples;Min_cycle;Max_cycle;Signal;HPM_P1;HPM_P2
2022/11/24 00:01:28;;;;;;;0.30;0.20;;;;;;;8.12;100.00;94401.59;5112735;28;20462;-51
2022/11/24 00:03:59;;;;;;;0.63;0.63;;;;;;;7.76;100.00;94386.31;5112350;28;20432;-51
2022/11/24 00:06:29;;;;;;;0.37;0.30;;;;;;;7.84;100.00;94401.56;5112680;28;20426;-51
2022/11/24 00:08:58;;;;;;;0.30;0.20;;;;;;;7.73;100.00;94392.91;5112260;28;20478;-51
2022/11/24 00:11:27;;;;;;;0.40;0.30;;;;;;;8.00;100.00;94395.09;5112314;28;20428;-52
2022/11/24 00:13:57;;;;;;;0.60;0.47;;;;;;;8.07;100.00;94393.72;5112259;28;20439;-51
2022/11/24 00:16:27;;;;;;;0.30;0.20;;;;;;;8.19;100.00;94390.75;5112247;28;20895;-51
2022/11/24 00:18:57;;;;;;;0.87;0.53;;;;;;;7.76;100.00;94315.88;5112279;28;20427;-51
2022/11/24 00:21:29;;;;;;;0.83;0.83;;;;;;;8.26;100.00;94394.66;5112592;28;20419;-51
2022/11/24 00:23:58;;;;;;;0.70;0.57;;;;;;;8.28;100.00;94397.81;5112221;28;20438;-51
2022/11/24 00:26:28;;;;;;;0.80;0.80;;;;;;;8.11;100.00;94396.59;5112175;28;20924;-51
2022/11/24 00:28:59;;;;;;;0.40;0.30;;;;;;;8.19;100.00;94393.38;5111886;28;20479;-51
2022/11/24 00:31:30;;;;;;;1.00;1.00;;;;;;;8.04;100.00;94388.22;5112066;28;20957;-51
2022/11/24 00:34:01;;;;;;;0.80;0.30;;;;;;;8.10;100.00;94395.81;5112122;28;20919;-51
2022/11/24 00:36:32;;;;;;;0.53;0.53;;;;;;;8.16;100.00;94399.19;5112360;28;20761;-51
2022/11/24 00:39:02;;;;;;;0.40;0.30;;;;;;;8.02;100.00;94399.03;5112069;28;20431;-51
2022/11/24 00:41:31;;;;;;;1.23;1.13;;;;;;;7.76;100.00;94388.94;5113828;28;20431;-51
2022/11/24 00:44:00;;;;;;;0.50;0.50;;;;;;;7.91;100.00;94396.75;5116075;27;20434;-51
2022/11/24 00:46:29;;;;;;;0.47;0.30;;;;;;;7.39;100.00;94371.75;5116239;28;20427;-51
2022/11/24 00:48:59;;;;;;;1.37;0.67;;;;;;;7.72;100.00;94387.91;5115932;28;20980;-51
2022/11/24 00:51:29;;;;;;;0.40;0.30;;;;;;;7.43;100.00;94319.28;5116027;28;20456;-51
2022/11/24 00:53:58;;;;;;;0.40;0.30;;;;;;;7.86;100.00;94378.31;5116273;28;20759;-51
2022/11/24 00:56:28;;;;;;;0.50;0.50;;;;;;;7.94;100.00;94393.56;5115209;28;20427;-51
2022/11/24 00:58:56;;;;;;;0.63;0.43;;;;;;;7.52;100.00;94331.59;5116168;28;20499;-51
2022/11/24 01:01:27;;;;;;;0.57;0.50;;;;;;;7.93;100.00;94391.97;5115965;28;20427;-51
2022/11/24 01:03:55;;;;;;;0.30;0.30;;;;;;;7.97;100.00;94387.75;5116092;28;20853;-51
2022/11/24 01:06:26;;;;;;;0.60;0.60;;;;;;;7.94;100.00;94401.47;5116027;28;20765;-51
2022/11/24 01:08:56;;;;;;;0.43;0.33;;;;;;;8.00;100.00;94400.38;5115927;28;20520;-51
2022/11/24 01:11:26;;;;;;;0.40;0.20;;;;;;;7.87;100.00;94396.50;5115816;28;20427;-51
2022/11/24 01:13:57;;;;;;;0.60;0.60;;;;;;;7.81;100.00;94383.63;5115841;28;20427;-51
2022/11/24 01:16:28;;;;;;;0.40;0.30;;;;;;;7.75;100.00;94388.16;5115464;28;20432;-51
2022/11/24 01:18:56;;;;;;;0.40;0.40;;;;;;;7.69;100.00;94373.41;5114836;28;20424;-52
2022/11/24 01:21:25;;;;;;;0.77;0.77;;;;;;;7.40;100.00;94391.78;5115233;28;20959;-52
2022/11/24 01:23:55;;;;;;;0.30;0.20;;;;;;;7.51;100.00;94390.66;5115620;28;21073;-52
2022/11/24 01:26:23;;;;;;;2.10;0.53;;;;;;;7.71;100.00;94394.25;5115571;28;20442;-52
2022/11/24 01:28:53;;;;;;;0.40;0.40;;;;;;;7.53;100.00;94393.03;5115215;28;20459;-52
2022/11/24 01:31:22;;;;;;;0.40;0.30;;;;;;;7.54;100.00;94381.41;5115101;28;20426;-52
2022/11/24 01:33:51;;;;;;;1.13;0.97;;;;;;;6.64;100.00;94387.84;5115123;28;20442;-52
2022/11/24 01:36:19;;;;;;;0.40;0.33;;;;;;;6.37;100.00;94399.44;5114998;28;20443;-52
2022/11/24 01:38:47;;;;;;;1.00;0.93;;;;;;;6.28;100.00;94400.25;5115330;28;20975;-50
2022/11/24 01:41:19;;;;;;;0.60;0.60;;;;;;;5.67;100.00;94402.03;5115073;28;20434;-52
2022/11/24 01:43:49;;;;;;;1.07;1.07;;;;;;;5.06;100.00;94394.00;5114848;28;20432;-53
2022/11/24 01:46:22;;;;;;;0.67;0.67;;;;;;;5.40;100.00;94417.22;5115254;28;20416;-52
2022/11/24 01:48:56;;;;;;;0.40;0.30;;;;;;;5.77;100.00;94409.94;5114863;28;20432;-51
2022/11/24 01:51:27;;;;;;;1.00;1.00;;;;;;;6.49;100.00;94404.47;5114429;28;20998;-50
2022/11/24 01:53:59;;;;;;;0.40;0.40;;;;;;;6.11;100.00;94416.31;5115040;28;20887;-50
2022/11/24 01:56:30;;;;;;;0.80;0.80;;;;;;;6.03;100.00;94403.69;5114933;28;20425;-51
2022/11/24 01:59:00;;;;;;;0.37;0.30;;;;;;;6.26;100.00;94405.78;5114942;27;20439;-51
2022/11/24 02:01:30;;;;;;;0.40;0.33;;;;;;;5.66;100.00;94418.88;5114903;28;20781;-51
2022/11/24 02:03:59;;;;;;;0.30;0.30;;;;;;;6.15;100.00;94420.00;5114893;28;20432;-51
2022/11/24 02:06:30;;;;;;;0.53;0.53;;;;;;;6.42;100.00;94422.38;5114510;28;20434;-51
2022/11/24 02:09:03;;;;;;;0.47;0.47;;;;;;;6.21;100.00;94432.09;5114829;28;20427;-51
2022/11/24 02:11:35;;;;;;;1.80;0.60;;;;;;;6.54;100.00;94424.72;5114448;28;20483;-51
2022/11/24 02:14:07;;;;;;;0.90;0.90;;;;;;;6.53;100.00;94425.78;5114460;28;20424;-51
2022/11/24 02:16:37;;;;;;;0.50;0.33;;;;;;;6.51;100.00;94425.25;5113907;28;20428;-51
2022/11/24 02:19:12;;;;;;;0.40;0.40;;;;;;;6.53;100.00;94423.91;5114058;28;20453;-51
2022/11/24 02:21:40;;;;;;;0.40;0.33;;;;;;;6.68;100.00;94428.41;5113837;27;20446;-52
2022/11/24 02:24:19;;;;;;;0.30;0.30;;;;;;;6.62;100.00;94434.72;5114161;28;20443;-51
2022/11/24 02:26:50;;;;;;;0.40;0.30;;;;;;;6.59;100.00;94437.88;5113913;28;20447;-51
2022/11/24 02:29:19;;;;;;;0.40;0.33;;;;;;;6.54;100.00;94422.88;5114143;28;20801;-51
2022/11/24 02:31:52;;;;;;;2.50;2.40;;;;;;;6.25;100.00;94438.41;5113374;28;20486;-51
2022/11/24 02:34:20;;;;;;;0.50;0.50;;;;;;;6.53;100.00;94437.06;5113454;28;20437;-52
2022/11/24 02:36:49;;;;;;;1.17;1.17;;;;;;;6.33;100.00;94430.00;5113982;28;20416;-52
2022/11/24 02:39:17;;;;;;;0.40;0.33;;;;;;;6.45;100.00;94444.75;5113523;28;20432;-50
2022/11/24 02:41:53;;;;;;;0.60;0.60;;;;;;;6.46;100.00;94443.66;5113748;28;20488;-51
2022/11/24 02:44:27;;;;;;;0.73;0.73;;;;;;;6.33;100.00;94432.63;5113523;28;20443;-51
2022/11/24 02:47:03;;;;;;;9.00;1.07;;;;;;;6.31;100.00;94411.06;5113079;28;20420;-51
2022/11/24 02:49:31;;;;;;;1.83;1.13;;;;;;;6.43;100.00;94434.44;5113777;28;20424;-51
2022/11/24 02:52:00;;;;;;;0.40;0.40;;;;;;;6.57;100.00;94432.09;5113277;27;20479;-51
2022/11/24 02:54:28;;;;;;;0.30;0.30;;;;;;;6.66;100.00;94431.28;5113338;28;20468;-51
2022/11/24 02:56:58;;;;;;;0.93;0.93;;;;;;;6.19;100.00;94433.41;5113206;28;20995;-51
2022/11/24 02:59:26;;;;;;;0.87;0.87;;;;;;;5.98;100.00;94411.56;5113231;28;20424;-51
2022/11/24 03:01:54;;;;;;;0.50;0.50;;;;;;;6.37;100.00;94419.75;5112426;28;20439;-51
2022/11/24 03:04:23;;;;;;;2.10;1.90;;;;;;;6.38;100.00;94398.41;5112789;28;20447;-51
2022/11/24 03:06:51;;;;;;;0.50;0.40;;;;;;;6.29;100.00;94418.44;5113484;28;20428;-51
2022/11/24 03:09:19;;;;;;;1.70;1.60;;;;;;;6.19;100.00;94409.75;5112735;28;20420;-51
2022/11/24 03:11:47;;;;;;;0.60;0.60;;;;;;;6.49;100.00;94398.41;5112828;27;20491;-51
2022/11/24 03:14:17;;;;;;;0.40;0.33;;;;;;;6.59;100.00;94401.00;5112984;28;20416;-51
2022/11/24 03:16:45;;;;;;;0.50;0.30;;;;;;;6.35;100.00;94406.03;5112878;28;20432;-51
2022/11/24 03:19:14;;;;;;;0.90;0.40;;;;;;;6.63;100.00;94405.47;5112045;28;20431;-51
2022/11/24 03:21:42;;;;;;;0.50;0.50;;;;;;;6.17;100.00;94415.25;5112938;28;20788;-51
2022/11/24 03:24:10;;;;;;;0.40;0.30;;;;;;;5.92;100.00;94415.25;5113100;28;20424;-51
2022/11/24 03:26:38;;;;;;;0.83;0.80;;;;;;;6.29;100.00;94407.91;5112954;28;20453;-51
2022/11/24 03:29:07;;;;;;;1.90;0.70;;;;;;;5.90;100.00;94398.94;5111966;28;20475;-51
2022/11/24 03:31:36;;;;;;;0.30;0.30;;;;;;;6.19;100.00;94413.16;5111934;28;20467;-51
2022/11/24 03:34:04;;;;;;;0.30;0.30;;;;;;;6.44;100.00;94415.00;5111756;28;20452;-51
2022/11/24 03:36:33;;;;;;;0.30;0.20;;;;;;;6.49;100.00;94388.66;5111740;28;20435;-51
2022/11/24 03:39:01;;;;;;;0.77;0.70;;;;;;;6.74;100.00;94414.16;5111273;28;20423;-51
2022/11/24 03:41:29;;;;;;;0.30;0.20;;;;;;;6.37;100.00;94411.84;5111644;28;20931;-51
2022/11/24 03:43:57;;;;;;;0.30;0.20;;;;;;;6.42;100.00;94416.31;5111915;28;20896;-51
2022/11/24 03:46:26;;;;;;;0.60;0.33;;;;;;;6.53;100.00;94425.78;5111553;28;20928;-51
2022/11/24 03:48:55;;;;;;;0.30;0.20;;;;;;;6.24;100.00;94407.13;5110696;28;20435;-51
2022/11/24 03:51:24;;;;;;;1.37;1.33;;;;;;;6.12;100.00;94417.88;5111332;28;20470;-51
2022/11/24 03:53:52;;;;;;;0.40;0.30;;;;;;;5.47;100.00;94425.66;5110896;28;20424;-51
2022/11/24 03:56:20;;;;;;;0.63;0.63;;;;;;;5.30;100.00;94430.34;5111393;28;20428;-51
2022/11/24 03:58:48;;;;;;;0.60;0.60;;;;;;;5.33;100.00;94446.38;5111460;28;20421;-51
2022/11/24 04:01:17;;;;;;;0.97;0.97;;;;;;;4.94;100.00;94435.44;5110261;28;20523;-51
2022/11/24 04:03:45;;;;;;;4.20;1.03;;;;;;;5.21;100.00;94450.28;5111604;28;20463;-51
2022/11/24 04:06:15;;;;;;;0.30;0.30;;;;;;;5.27;100.00;94451.84;5110427;28;20435;-51
2022/11/24 04:08:43;;;;;;;0.50;0.43;;;;;;;4.87;100.00;94434.88;5111249;28;20416;-51
2022/11/24 04:12:42;;;;;;;0.73;0.73;;;;;;;4.61;100.00;94458.59;5111201;28;20463;-51
2022/11/24 04:13:59;;;;;;;0.50;0.40;;;;;;;4.76;100.00;94450.81;5111482;28;20432;-51
2022/11/24 04:16:27;;;;;;;0.60;0.53;;;;;;;5.19;100.00;94455.75;5109747;28;20455;-51
2022/11/24 04:18:56;;;;;;;0.30;0.20;;;;;;;5.24;100.00;94455.78;5111381;28;20459;-51
2022/11/24 04:21:25;;;;;;;0.50;0.30;;;;;;;4.86;100.00;94462.16;5111362;28;20490;-51
2022/11/24 04:23:54;;;;;;;0.77;0.77;;;;;;;4.56;100.00;94469.06;5111625;28;20428;-51
2022/11/24 04:26:22;;;;;;;0.40;0.30;;;;;;;4.92;100.00;94463.00;5110901;28;20800;-52
2022/11/24 04:28:50;;;;;;;0.40;0.30;;;;;;;4.85;100.00;94476.34;5067524;28;1243143;-52
2022/11/24 04:31:19;;;;;;;0.50;0.40;;;;;;;4.86;100.00;94466.63;5110914;28;20249;-52
2022/11/24 04:33:47;;;;;;;0.67;0.67;;;;;;;5.14;100.00;94468.88;5111717;28;20441;-52
2022/11/24 04:36:15;;;;;;;1.40;1.13;;;;;;;5.13;100.00;94475.97;5112060;28;20417;-52
2022/11/24 04:38:45;;;;;;;0.50;0.50;;;;;;;5.47;100.00;94478.19;5111601;28;20434;-52
2022/11/24 04:41:33;;;;;;;0.63;0.63;;;;;;;5.85;100.00;94469.94;5111708;28;20477;-52
2022/11/24 04:44:01;;;;;;;0.60;0.60;;;;;;;5.93;100.00;94477.31;5111640;28;20428;-52
2022/11/24 04:46:30;;;;;;;4.03;0.40;;;;;;;5.34;100.00;94483.97;5111990;28;20519;-52
2022/11/24 04:48:58;;;;;;;0.70;0.60;;;;;;;5.72;100.00;94470.41;5111647;28;20917;-52
2022/11/24 04:51:26;;;;;;;0.70;0.33;;;;;;;6.22;100.00;94482.88;5112103;28;20489;-53
2022/11/24 04:53:56;;;;;;;0.40;0.40;;;;;;;6.11;100.00;94474.19;5111256;28;20924;-53
2022/11/24 04:56:24;;;;;;;0.97;0.97;;;;;;;5.80;100.00;94480.41;5111766;28;20432;-53
2022/11/24 04:58:52;;;;;;;0.50;0.50;;;;;;;5.84;100.00;94485.94;5111845;28;20908;-53
2022/11/24 05:01:20;;;;;;;0.83;0.83;;;;;;;5.88;100.00;94492.28;5111561;28;20428;-53
2022/11/24 05:03:49;;;;;;;0.50;0.30;;;;;;;5.99;100.00;94480.75;5111516;28;20432;-53
2022/11/24 05:06:17;;;;;;;0.50;0.37;;;;;;;6.02;100.00;94486.25;5111701;28;20548;-53
2022/11/24 05:08:47;;;;;;;0.70;0.63;;;;;;;5.92;100.00;94494.13;5111803;28;20450;-53
2022/11/24 05:11:17;;;;;;;0.40;0.40;;;;;;;5.72;100.00;94491.44;5111312;28;20463;-53
2022/11/24 05:13:45;;;;;;;0.43;0.30;;;;;;;5.86;100.00;94487.31;5111266;28;20436;-53
2022/11/24 05:16:13;;;;;;;0.50;0.30;;;;;;;5.98;100.00;94489.69;5111714;28;20950;-53
2022/11/24 05:18:42;;;;;;;0.50;0.50;;;;;;;5.95;100.00;94512.03;5111542;28;20454;-53
2022/11/24 05:21:10;;;;;;;0.30;0.30;;;;;;;5.77;100.00;94489.59;5111364;28;20420;-52
2022/11/24 05:23:39;;;;;;;1.90;1.90;;;;;;;5.97;100.00;94517.03;5111237;28;20426;-52
2022/11/24 05:26:07;;;;;;;0.60;0.60;;;;;;;6.07;100.00;94524.97;5111578;28;20772;-52
2022/11/24 05:28:36;;;;;;;0.47;0.47;;;;;;;5.64;100.00;94521.63;5114472;28;20588;-52
2022/11/24 05:31:05;;;;;;;2.10;2.00;;;;;;;5.46;100.00;94522.09;5114825;28;20416;-52
2022/11/24 05:33:33;;;;;;;2.33;2.23;;;;;;;5.58;100.00;94527.94;5114945;28;20424;-52
2022/11/24 05:36:03;;;;;;;0.97;0.93;;;;;;;5.86;100.00;94526.75;5115095;28;20879;-52
2022/11/24 05:38:32;;;;;;;3.40;3.10;;;;;;;6.06;100.00;94534.69;5114600;28;20436;-53
2022/11/24 05:41:01;;;;;;;1.90;1.80;;;;;;;6.41;100.00;94526.06;5114351;28;21005;-52
2022/11/24 05:43:30;;;;;;;0.60;0.60;;;;;;;6.63;100.00;94526.56;5114446;28;20780;-53
2022/11/24 05:46:00;;;;;;;0.80;0.80;;;;;;;6.67;100.00;94529.50;5114401;28;20428;-52
2022/11/24 05:48:29;;;;;;;0.57;0.57;;;;;;;6.21;100.00;94532.09;5114287;27;20424;-52
2022/11/24 05:50:58;;;;;;;0.53;0.50;;;;;;;6.31;100.00;94532.09;5114505;27;20796;-52
2022/11/24 05:53:26;;;;;;;0.63;0.63;;;;;;;6.45;100.00;94532.38;5114331;28;20460;-53
2022/11/24 05:55:55;;;;;;;8.60;0.80;;;;;;;6.52;100.00;94534.75;5114362;28;20475;-52
2022/11/24 05:58:23;;;;;;;0.60;0.60;;;;;;;6.48;100.00;94525.81;5114232;28;20454;-52
2022/11/24 06:00:52;;;;;;;1.90;1.80;;;;;;;6.44;100.00;94535.25;5114002;28;20432;-52
2022/11/24 06:03:22;;;;;;;1.00;1.00;;;;;;;6.47;100.00;94524.22;5114088;28;20511;-52
2022/11/24 06:05:50;;;;;;;0.80;0.80;;;;;;;6.60;100.00;94535.03;5114101;28;20427;-53
2022/11/24 06:08:19;;;;;;;1.53;1.53;;;;;;;6.75;100.00;94536.88;5113828;28;20438;-52
2022/11/24 06:10:47;;;;;;;1.00;1.00;;;;;;;6.60;100.00;94505.28;5113539;28;20447;-53
2022/11/24 06:13:15;;;;;;;1.40;1.30;;;;;;;7.25;100.00;94543.91;5113988;28;20991;-53
2022/11/24 06:15:44;;;;;;;1.07;1.07;;;;;;;7.39;100.00;94545.72;5114168;27;20526;-53
2022/11/24 06:18:12;;;;;;;1.40;1.30;;;;;;;7.63;100.00;94533.53;5113364;28;20430;-52
2022/11/24 06:20:42;;;;;;;1.70;1.60;;;;;;;7.93;96.20;94545.78;5113141;27;20522;-53
2022/11/24 06:23:30;;;;;;;1.90;1.33;;;;;;;8.35;96.63;94531.34;5112125;28;20545;-53
2022/11/24 06:25:58;;;;;;;0.93;0.93;;;;;;;8.55;96.81;94545.19;5112744;28;20809;-52
2022/11/24 06:28:27;;;;;;;4.10;1.47;;;;;;;8.83;90.72;94533.88;5113340;28;20563;-52
2022/11/24 06:30:59;;;;;;;1.93;1.27;;;;;;;9.49;86.11;94541.19;5113238;28;20933;-53
2022/11/24 06:33:32;;;;;;;1.00;0.80;;;;;;;9.87;81.53;94545.53;5113490;27;20485;-54
2022/11/24 06:36:07;;;;;;;2.60;2.00;;;;;;;10.07;80.29;94536.53;5114023;27;20428;-53
2022/11/24 06:38:36;;;;;;;2.33;1.40;;;;;;;10.49;78.64;94552.44;5112917;28;20929;-53
2022/11/24 06:41:06;;;;;;;1.37;1.37;;;;;;;10.64;76.38;94560.16;5113543;28;20430;-51
2022/11/24 06:43:36;;;;;;;3.90;3.60;;;;;;;10.76;76.11;94557.84;5112883;28;20819;-51
2022/11/24 06:46:04;;;;;;;2.03;1.93;;;;;;;10.55;72.27;94558.47;5113098;28;20435;-52
2022/11/24 06:48:33;;;;;;;1.33;1.30;;;;;;;11.13;70.18;94561.53;5113215;28;20439;-53
2022/11/24 06:51:02;;;;;;;1.17;1.10;;;;;;;11.27;70.83;94565.00;5113578;28;20504;-52
2022/11/24 06:53:36;;;;;;;3.23;3.03;;;;;;;11.40;70.46;94562.38;5113479;28;20480;-53
2022/11/24 06:56:06;;;;;;;1.30;1.20;;;;;;;11.47;70.17;94572.59;5113631;28;20422;-53
2022/11/24 06:58:44;;;;;;;0.80;0.80;;;;;;;11.65;67.91;94565.66;5112958;28;20483;-53
2022/11/24 07:01:14;;;;;;;3.10;1.17;;;;;;;11.89;66.24;94575.03;5113153;28;20805;-54
2022/11/24 07:03:43;;;;;;;1.17;1.07;;;;;;;12.18;64.24;94573.94;5113107;28;20521;-54
2022/11/24 07:06:11;;;;;;;1.53;1.43;;;;;;;12.22;64.17;94559.00;5112891;28;20957;-54
2022/11/24 07:08:41;;;;;;;2.30;2.10;;;;;;;12.66;62.73;94565.19;5113268;28;20955;-54
2022/11/24 07:11:11;;;;;;;1.00;1.00;;;;;;;12.37;62.44;94564.00;5112522;28;20508;-54
2022/11/24 07:13:39;;;;;;;0.97;0.87;;;;;;;12.00;69.12;94570.31;5112000;28;20471;-54
2022/11/24 07:16:12;;;;;;;0.80;0.80;;;;;;;12.88;80.09;94551.13;5112828;28;20435;-55
2022/11/24 07:18:41;;;;;;;1.63;1.20;;;;;;;12.71;69.76;94567.75;5113111;28;20441;-55
2022/11/24 07:21:09;;;;;;;1.00;1.00;;;;;;;11.44;73.92;94573.97;5112918;28;20967;-54
2022/11/24 07:23:38;;;;;;;1.70;0.97;;;;;;;11.59;69.59;94575.56;5112656;27;20429;-55
2022/11/24 07:26:09;;;;;;;2.13;1.93;;;;;;;11.34;72.58;94571.50;5113089;28;20454;-54
2022/11/24 07:28:38;;;;;;;4.63;1.90;;;;;;;12.55;81.16;94566.50;5112304;28;20481;-55
2022/11/24 07:31:07;;;;;;;1.70;0.70;;;;;;;11.89;68.10;94534.44;5112305;28;20521;-55
2022/11/24 07:33:36;;;;;;;1.77;1.67;;;;;;;10.27;68.68;94576.03;5112356;28;20979;-55
2022/11/24 07:36:06;;;;;;;0.50;0.47;;;;;;;9.62;71.00;94577.56;5112494;28;20430;-55
2022/11/24 07:38:35;;;;;;;2.93;2.73;;;;;;;9.12;73.29;94583.34;5112538;28;20953;-55
2022/11/24 07:41:05;;;;;;;0.50;0.50;;;;;;;8.82;75.22;94585.16;5112463;28;20437;-55
2022/11/24 07:43:36;;;;;;;0.60;0.40;;;;;;;9.15;74.55;94582.78;5112342;27;20970;-55
2022/11/24 07:46:06;;;;;;;0.67;0.67;;;;;;;10.02;73.38;94587.69;5112274;28;20437;-56
2022/11/24 07:48:34;;;;;;;0.50;0.50;;;;;;;10.36;70.42;94579.63;5111958;28;20476;-55
2022/11/24 07:51:03;;;;;;;0.40;0.40;;;;;;;11.70;67.48;94570.91;5111383;28;20426;-56
2022/11/24 07:53:33;;;;;;;0.50;0.50;;;;;;;10.50;66.97;94532.03;5111533;28;21052;-56
2022/11/24 07:56:03;;;;;;;0.63;0.63;;;;;;;10.45;69.84;94577.91;5112466;28;20425;-56
2022/11/24 07:58:34;;;;;;;0.60;0.40;;;;;;;10.48;71.12;94568.59;5112421;28;20786;-56
2022/11/24 08:01:11;;;;;;;0.90;0.90;;;;;;;10.29;72.54;94587.16;5112342;28;20980;-55
2022/11/24 08:03:39;;;;;;;0.60;0.60;;;;;;;11.53;70.12;94568.78;5112442;28;20448;-55
2022/11/24 08:06:08;;;;;;;0.50;0.50;;;;;;;11.57;70.33;94576.94;5112111;28;20426;-55
2022/11/24 08:08:57;;;;;;;2.20;2.10;;;;;;;12.02;67.17;94573.44;5111978;28;20818;-55
2022/11/24 08:11:26;;;;;;;2.57;2.47;;;;;;;11.73;65.61;94565.00;5112163;28;20430;-56
2022/11/24 08:13:57;;;;;;;0.90;0.90;;;;;;;11.79;65.85;94572.56;5112249;28;20472;-56
2022/11/24 08:16:25;;;;;;;2.23;1.40;;;;;;;10.95;68.56;94579.06;5112194;28;20763;-56
2022/11/24 08:18:55;;;;;;;8.30;4.27;;;;;;;10.78;70.02;94581.41;5111919;28;20892;-56
2022/11/24 08:21:23;;;;;;;0.83;0.83;;;;;;;11.41;69.84;94579.06;5112150;28;20793;-56
2022/11/24 08:23:54;;;;;;;0.90;0.67;;;;;;;12.31;68.79;94568.63;5112090;28;20457;-56
2022/11/24 08:26:23;;;;;;;2.10;2.00;;;;;;;12.93;67.33;94564.31;5110677;28;21073;-55
2022/11/24 08:28:55;;;;;;;2.03;1.60;;;;;;;13.55;63.25;94551.91;5111682;28;20470;-55
2022/11/24 08:31:31;;;;;;;8.90;1.43;;;;;;;13.64;63.71;94552.72;5111867;28;20441;-55
2022/11/24 08:34:00;;;;;;;1.53;1.50;;;;;;;14.12;62.06;94565.28;5110949;28;20981;-55
2022/11/24 08:36:28;;;;;;;2.33;1.73;;;;;;;14.88;61.33;94562.00;5111973;28;20425;-55
2022/11/24 08:38:58;;;;;;;1.67;0.93;;;;;;;15.36;58.51;94558.34;5111730;28;20452;-55
2022/11/24 08:41:27;;;;;;;1.60;1.50;;;;;;;15.69;56.89;94556.72;5111786;28;20513;-55
2022/11/24 08:43:56;;;;;;;0.90;0.90;;;;;;;16.05;57.01;94558.94;5112091;28;20453;-55
2022/11/24 08:46:25;;;;;;;1.00;0.90;;;;;;;16.24;54.87;94556.66;5111852;28;20931;-55
2022/11/24 08:48:55;;;;;;;11.53;2.40;;;;;;;15.38;54.19;94390.63;5111457;28;20436;-54
2022/11/24 08:51:25;;;;;;;1.43;1.40;;;;;;;16.93;53.34;94543.63;5111778;28;20927;-53
2022/11/24 08:53:55;;;;;;;2.60;2.40;;;;;;;17.05;52.54;94546.38;5111544;28;21006;-53
2022/11/24 08:56:24;;;;;;;1.07;1.07;;;;;;;17.13;53.43;94534.78;5111440;28;20931;-53
2022/11/24 08:58:53;;;;;;;1.37;1.37;;;;;;;19.02;53.11;94536.72;5111953;28;20438;-54
2022/11/24 09:01:22;;;;;;;12.87;0.87;;;;;;;19.85;48.08;94510.94;5111536;28;20505;-53
2022/11/24 09:03:53;;;;;;;8.07;0.73;;;;;;;18.89;49.09;94537.91;5115717;28;20514;-53
2022/11/24 09:06:24;;;;;;;0.60;0.60;;;;;;;18.75;49.50;94531.31;5115074;28;20436;-53
2022/11/24 09:08:55;;;;;;;1.33;1.23;;;;;;;18.00;50.76;94536.28;5115339;28;20432;-52
2022/11/24 09:11:25;;;;;;;8.23;1.90;;;;;;;18.73;48.61;94533.56;5115424;28;20434;-52
2022/11/24 09:13:54;;;;;;;1.17;0.90;;;;;;;18.89;47.65;94537.91;5115191;28;20868;-52
2022/11/24 09:16:25;;;;;;;1.77;1.30;;;;;;;19.07;47.58;94533.03;5115348;28;20455;-52
2022/11/24 09:18:59;;;;;;;1.20;1.20;;;;;;;18.18;48.67;94532.25;5115540;28;20522;-53
2022/11/24 09:21:28;;;;;;;0.70;0.70;;;;;;;17.16;50.11;94531.47;5115430;27;20426;-52
2022/11/24 09:23:57;;;;;;;0.73;0.73;;;;;;;17.93;49.92;94536.06;5115039;28;20439;-52
2022/11/24 09:26:27;;;;;;;1.80;0.97;;;;;;;18.59;48.41;94527.78;5115160;28;20506;-52
2022/11/24 09:28:56;;;;;;;1.03;0.50;;;;;;;19.46;47.02;94518.00;5114899;27;21027;-52
2022/11/24 09:31:27;;;;;;;0.60;0.60;;;;;;;18.56;48.65;94518.50;5114914;28;20437;-53
2022/11/24 09:33:56;;;;;;;1.23;1.13;;;;;;;17.51;50.44;94521.97;5114557;28;20475;-53
2022/11/24 09:36:27;;;;;;;0.50;0.40;;;;;;;17.74;50.96;94517.81;5114590;28;20459;-53
2022/11/24 09:38:55;;;;;;;0.60;0.57;;;;;;;17.84;50.78;94464.88;5114319;28;20428;-53
2022/11/24 09:41:44;;;;;;;2.40;0.40;;;;;;;18.58;50.09;94516.25;5114748;28;20449;-53
2022/11/24 09:45:03;;;;;;;5.30;0.60;;;;;;;17.96;50.37;94507.78;5114732;28;20955;-53
2022/11/24 09:47:42;;;;;;;0.93;0.93;;;;;;;19.05;49.51;94511.09;5067070;28;20463;-53
2022/11/24 09:50:16;;;;;;;0.80;0.50;;;;;;;18.47;49.60;94500.97;5114928;28;20436;-53
2022/11/24 09:52:50;;;;;;;2.67;0.53;;;;;;;17.02;51.30;94477.44;5114588;28;20520;-54
2022/11/24 09:55:30;;;;;;;0.50;0.43;;;;;;;18.40;50.34;94506.88;5114737;28;20470;-54
2022/11/24 09:58:09;;;;;;;0.50;0.43;;;;;;;18.26;51.11;94509.13;5114794;28;20428;-54
2022/11/24 10:00:38;;;;;;;0.53;0.40;;;;;;;18.80;50.96;94498.88;5114483;28;20428;-55
2022/11/24 10:03:11;;;;;;;0.60;0.40;;;;;;;19.38;49.55;94490.16;5114667;28;20456;-55
2022/11/24 10:05:39;;;;;;;1.23;1.13;;;;;;;17.93;51.34;94492.38;5114294;27;20438;-55
2022/11/24 10:08:19;;;;;;;0.60;0.60;;;;;;;18.49;51.35;94499.53;5114714;27;20828;-56
2022/11/24 10:10:55;;;;;;;1.07;0.97;;;;;;;17.74;51.17;94476.81;5114497;28;20431;-55
2022/11/24 10:13:38;;;;;;;1.00;0.50;;;;;;;17.65;52.14;94490.34;5114242;28;20442;-54
2022/11/24 10:16:18;;;;;;;0.50;0.40;;;;;;;17.82;52.03;94480.50;5114496;27;20507;-54
2022/11/24 10:18:57;;;;;;;0.90;0.90;;;;;;;18.00;52.94;94477.28;5113944;28;20447;-52
2022/11/24 10:21:47;;;;;;;0.50;0.40;;;;;;;17.95;52.60;94477.50;5114048;28;20411;-53
2022/11/24 10:24:31;;;;;;;0.83;0.83;;;;;;;17.04;54.57;94470.63;5113316;28;20424;-52
2022/11/24 10:27:05;;;;;;;1.73;0.67;;;;;;;17.18;54.71;94472.25;5113580;28;20951;-53
2022/11/24 10:29:39;;;;;;;3.87;1.03;;;;;;;17.01;55.70;94473.97;5113982;28;20431;-53
2022/11/24 10:32:16;;;;;;;1.43;1.33;;;;;;;16.96;56.41;94465.34;5113836;28;20432;-53
2022/11/24 10:34:46;;;;;;;3.30;0.73;;;;;;;17.15;55.96;94471.78;5114005;28;20553;-54
2022/11/24 10:37:20;;;;;;;0.67;0.67;;;;;;;17.46;55.41;94467.81;5114025;28;20466;-54
2022/11/24 10:40:00;;;;;;;0.80;0.80;;;;;;;17.78;54.31;94462.41;5113390;28;20440;-54
2022/11/24 10:42:30;;;;;;;1.33;1.23;;;;;;;18.36;53.68;94458.50;5113485;28;20420;-54
2022/11/24 10:45:03;;;;;;;0.70;0.50;;;;;;;18.15;53.24;94449.78;5113427;28;21026;-54
2022/11/24 10:47:32;;;;;;;2.00;0.70;;;;;;;18.25;54.62;94448.53;5113337;28;20430;-56
2022/11/24 10:50:04;;;;;;;1.63;1.53;;;;;;;18.58;54.13;94445.69;5112629;28;20471;-55
2022/11/24 10:52:38;;;;;;;1.60;1.50;;;;;;;19.22;52.07;94440.97;5113395;28;20420;-55
2022/11/24 10:55:09;;;;;;;1.17;0.80;;;;;;;20.43;50.18;94437.38;5113303;28;20565;-53
2022/11/24 10:57:39;;;;;;;1.30;1.20;;;;;;;21.30;47.80;94410.63;5112950;28;20809;-53
2022/11/24 11:00:31;;;;;;;0.60;0.60;;;;;;;21.22;47.88;94435.94;5113341;28;20519;-53
2022/11/24 11:03:19;;;;;;;1.47;1.33;;;;;;;20.08;48.67;94434.66;5113105;28;20458;-55
2022/11/24 11:05:52;;;;;;;1.40;0.67;;;;;;;19.88;50.18;94429.56;5113366;28;20520;-56
2022/11/24 11:08:23;;;;;;;1.30;1.20;;;;;;;19.23;50.54;94414.84;5113087;28;20478;-54
2022/11/24 11:11:18;;;;;;;1.30;1.20;;;;;;;19.11;52.40;94431.06;5112907;28;20453;-54
2022/11/24 11:13:54;;;;;;;0.60;0.50;;;;;;;18.91;52.34;94416.72;5113272;28;20428;-54
2022/11/24 11:16:36;;;;;;;1.37;0.60;;;;;;;19.40;50.84;94410.00;5113180;28;20523;-55
2022/11/24 11:19:06;;;;;;;1.13;1.13;;;;;;;19.27;51.96;94413.06;5112846;28;20464;-55
2022/11/24 11:22:01;;;;;;;0.80;0.80;;;;;;;19.41;51.33;94410.75;5112717;28;20446;-55
2022/11/24 11:24:29;;;;;;;0.90;0.83;;;;;;;19.28;51.89;94415.41;5112307;28;20974;-55
2022/11/24 11:27:04;;;;;;;0.63;0.40;;;;;;;18.75;52.67;94416.69;5111921;28;20432;-54
2022/11/24 11:29:32;;;;;;;1.50;1.50;;;;;;;19.57;50.97;94414.22;5113043;28;20429;-54
2022/11/24 11:32:23;;;;;;;0.60;0.60;;;;;;;19.32;50.23;94394.78;5112272;28;20470;-53
2022/11/24 11:35:13;;;;;;;0.50;0.50;;;;;;;18.39;51.09;94326.31;5112322;28;20476;-53
2022/11/24 11:37:42;;;;;;;0.50;0.33;;;;;;;18.95;51.96;94407.63;5112148;28;20436;-53
2022/11/24 11:40:15;;;;;;;0.60;0.50;;;;;;;19.06;51.54;94409.81;5112411;28;20522;-53
2022/11/24 11:42:50;;;;;;;0.40;0.33;;;;;;;18.38;51.89;94397.22;5111434;28;20424;-54
2022/11/24 11:45:34;;;;;;;2.23;1.97;;;;;;;17.94;52.75;94422.31;5112606;28;20427;-54
2022/11/24 11:48:22;;;;;;;0.90;0.60;;;;;;;17.67;53.97;94423.00;5112376;28;20438;-54
2022/11/24 11:50:54;;;;;;;0.50;0.40;;;;;;;17.41;54.68;94425.97;5112480;28;20523;-54
2022/11/24 11:53:47;;;;;;;0.40;0.30;;;;;;;17.53;54.00;94417.97;5112081;28;20436;-55